Sodville, Texas
Current Conditions -  °F | °C
As of 10:51 AM on Thursday 23 Oct 2014 (Local Time) from KCRP Reporting Station
Broken Clouds Broken Clouds  
Wind Chill: 77°   Ceiling: 14000
Heat Index: 79°   Visibility: 10mi
Dew Point: 64°   Wind: 7mph
Humidity: 64%   Direction: 70°ENE
Pressure: 30.11"   Gusts: NA
Location:  28.0577°N, 97.5365°W
Report Text: KCRP 231551Z 07006KT 10SM FEW035 FEW090 BKN140 BKN250 25/18 A3011 RMK AO2 SLP195 T02500178
Loading
Personal Weather Stations






























Interactive Weather Map
Tropical Storm Tracking
New forecast layout! Learn more

10-Day Weather Forecast

Advertisements
Track Severe Weather on mobile